createdAt,value
2018-10-09T00:00:21.863Z,41.83
2018-10-09T00:02:51.607Z,40.08
2018-10-09T00:05:21.368Z,39.90
2018-10-09T00:07:51.088Z,40.63
2018-10-09T00:10:20.879Z,39.00
2018-10-09T00:12:50.631Z,40.80
2018-10-09T00:15:20.335Z,37.35
2018-10-09T00:17:50.047Z,41.53
2018-10-09T00:20:24.313Z,40.23
2018-10-09T00:22:59.040Z,39.40
2018-10-09T00:25:28.809Z,42.05
2018-10-09T00:27:58.576Z,42.98
2018-10-09T00:30:28.695Z,42.27
2018-10-09T00:32:58.412Z,41.88
2018-10-09T00:35:28.109Z,39.20
2018-10-09T00:37:58.070Z,40.10
2018-10-09T00:40:27.795Z,40.38
2018-10-09T00:42:57.518Z,42.08
2018-10-09T00:45:26.706Z,44.55
2018-10-09T00:47:55.896Z,42.70
2018-10-09T00:50:25.072Z,43.08
2018-10-09T00:52:54.578Z,38.08
2018-10-09T00:55:23.759Z,42.83
2018-10-09T00:57:59.111Z,39.35
2018-10-09T01:00:28.895Z,33.85
2018-10-09T01:02:58.686Z,35.52
2018-10-09T01:05:28.422Z,39.73
2018-10-09T01:07:58.111Z,36.53
2018-10-09T01:10:27.806Z,35.28
2018-10-09T01:12:57.494Z,36.90
2018-10-09T01:15:27.246Z,35.05
2018-10-09T01:17:57.236Z,34.63
2018-10-09T01:20:31.298Z,36.73
2018-10-09T01:23:02.738Z,32.98
2018-10-09T01:25:32.760Z,37.50
2018-10-09T01:28:02.967Z,37.67
2018-10-09T01:30:33.638Z,36.77
2018-10-09T01:33:03.882Z,34.65
2018-10-09T01:35:33.923Z,37.05
2018-10-09T01:38:03.906Z,35.85
2018-10-09T01:40:33.614Z,32.98
2018-10-09T01:43:03.614Z,34.40
2018-10-09T01:45:33.326Z,32.90
2018-10-09T01:48:03.030Z,33.83
2018-10-09T01:50:33.011Z,30.20
2018-10-09T01:53:03.091Z,32.60
2018-10-09T01:55:32.803Z,29.18
2018-10-09T01:58:02.508Z,28.87
2018-10-09T02:00:32.205Z,29.95
2018-10-09T02:03:01.933Z,31.93
2018-10-09T02:05:31.897Z,29.42
2018-10-09T02:08:01.950Z,28.90
2018-10-09T02:10:31.926Z,27.05
2018-10-09T02:13:01.644Z,29.52
2018-10-09T02:15:31.323Z,26.52
2018-10-09T02:18:01.091Z,31.27
2018-10-09T02:20:30.858Z,29.75
2018-10-09T02:23:00.566Z,28.35
2018-10-09T02:25:30.331Z,31.77
2018-10-09T02:28:00.051Z,32.58
2018-10-09T02:30:29.808Z,33.50
2018-10-09T02:32:59.539Z,35.13
2018-10-09T02:35:29.272Z,33.40
2018-10-09T02:37:58.995Z,31.27
2018-10-09T02:40:28.713Z,31.07
2018-10-09T02:42:58.423Z,29.37
2018-10-09T02:45:28.331Z,29.27
2018-10-09T02:47:59.939Z,30.88
2018-10-09T02:50:30.195Z,27.55
2018-10-09T02:52:59.902Z,26.48
2018-10-09T02:55:29.676Z,25.75
2018-10-09T02:57:59.798Z,24.55
2018-10-09T03:00:29.492Z,27.73
2018-10-09T03:02:59.223Z,27.22
2018-10-09T03:05:28.920Z,27.00
2018-10-09T03:07:58.626Z,29.90
2018-10-09T03:10:28.948Z,28.87
2018-10-09T03:12:58.721Z,27.73
2018-10-09T03:15:28.428Z,28.27
2018-10-09T03:17:58.157Z,25.77
2018-10-09T03:20:27.921Z,26.70
2018-10-09T03:22:57.815Z,25.68
2018-10-09T03:25:27.511Z,24.27
2018-10-09T03:27:57.682Z,25.90
2018-10-09T03:30:27.434Z,24.65
2018-10-09T03:32:57.504Z,23.25
2018-10-09T03:35:27.374Z,24.25
2018-10-09T03:37:57.115Z,23.20
2018-10-09T03:40:26.815Z,24.32
2018-10-09T03:42:56.559Z,24.63
2018-10-09T03:45:26.635Z,24.35
2018-10-09T03:47:56.335Z,21.52
2018-10-09T03:50:26.252Z,25.30
2018-10-09T03:52:55.967Z,25.02
2018-10-09T03:55:25.678Z,25.62
2018-10-09T03:57:55.386Z,24.23
2018-10-09T04:00:25.111Z,26.45
2018-10-09T04:02:54.811Z,30.02
2018-10-09T04:05:24.535Z,27.35
2018-10-09T04:07:54.263Z,26.25
2018-10-09T04:10:23.995Z,25.27
2018-10-09T04:12:53.780Z,24.30
2018-10-09T04:15:23.530Z,23.77
2018-10-09T04:17:53.251Z,23.83
2018-10-09T04:20:23.305Z,24.57
2018-10-09T04:22:53.203Z,24.15
2018-10-09T04:25:22.898Z,27.87
2018-10-09T04:27:52.590Z,24.57
2018-10-09T04:30:22.298Z,21.52
2018-10-09T04:32:52.055Z,22.25
2018-10-09T04:35:21.774Z,23.50
2018-10-09T04:37:51.543Z,19.95
2018-10-09T04:40:21.262Z,23.47
2018-10-09T04:42:51.002Z,21.68
2018-10-09T04:45:20.738Z,24.95
2018-10-09T04:47:50.447Z,26.02
2018-10-09T04:50:20.426Z,25.00
2018-10-09T04:52:50.131Z,28.40
2018-10-09T04:55:19.810Z,28.67
2018-10-09T04:57:49.504Z,28.17
2018-10-09T05:00:19.266Z,29.20
2018-10-09T05:02:48.983Z,28.85
2018-10-09T05:05:18.727Z,26.87
2018-10-09T05:07:48.443Z,25.82
2018-10-09T05:10:18.123Z,26.68
2018-10-09T05:12:47.852Z,28.00
2018-10-09T05:15:17.569Z,29.67
2018-10-09T05:17:47.303Z,25.72
2018-10-09T05:20:17.209Z,31.00
2018-10-09T05:22:46.926Z,33.33
2018-10-09T05:25:16.647Z,31.45
2018-10-09T05:27:46.344Z,35.98
2018-10-09T05:30:16.253Z,33.67
2018-10-09T05:32:45.960Z,32.60
2018-10-09T05:35:15.887Z,30.75
2018-10-09T05:37:45.727Z,28.75
2018-10-09T05:40:15.699Z,28.90
2018-10-09T05:42:45.384Z,26.62
2018-10-09T05:45:15.119Z,28.73
2018-10-09T05:47:44.858Z,25.92
2018-10-09T05:50:15.007Z,28.42
2018-10-09T05:52:44.729Z,27.93
2018-10-09T05:55:14.582Z,30.80
2018-10-09T05:57:44.334Z,30.57
2018-10-09T06:00:14.355Z,29.25
2018-10-09T06:02:44.194Z,30.60
2018-10-09T06:05:13.874Z,30.48
2018-10-09T06:07:43.978Z,30.92
2018-10-09T06:10:13.703Z,29.15
2018-10-09T06:12:43.438Z,33.02
2018-10-09T06:15:13.114Z,35.08
2018-10-09T06:17:42.811Z,37.93
2018-10-09T06:20:12.564Z,35.30
2018-10-09T06:22:42.314Z,36.70
2018-10-09T06:25:12.028Z,35.98
2018-10-09T06:27:41.780Z,35.10
2018-10-09T06:30:11.851Z,32.38
2018-10-09T06:32:41.554Z,33.00
2018-10-09T06:35:11.300Z,30.08
2018-10-09T06:37:40.999Z,31.15
2018-10-09T06:40:10.734Z,29.57
2018-10-09T06:42:40.464Z,28.92
2018-10-09T06:45:10.380Z,29.25
2018-10-09T06:47:40.422Z,28.45
2018-10-09T06:50:10.363Z,28.30
2018-10-09T06:52:40.052Z,28.98
2018-10-09T06:55:09.802Z,28.55
2018-10-09T06:57:39.514Z,24.67
2018-10-09T07:00:09.329Z,24.70
2018-10-09T07:02:39.295Z,24.57
2018-10-09T07:05:09.186Z,24.72
2018-10-09T07:07:38.959Z,23.07
2018-10-09T07:10:09.016Z,27.02
2018-10-09T07:12:38.727Z,26.20
2018-10-09T07:15:08.802Z,25.85
2018-10-09T07:17:38.527Z,28.05
2018-10-09T07:20:08.699Z,27.07
2018-10-09T07:22:38.387Z,28.42
2018-10-09T07:25:08.091Z,27.52
2018-10-09T07:27:37.803Z,27.42
2018-10-09T07:30:08.331Z,28.87
2018-10-09T07:32:38.098Z,27.52
2018-10-09T07:35:09.019Z,28.30
2018-10-09T07:37:38.837Z,28.45
2018-10-09T07:40:09.004Z,29.10
2018-10-09T07:42:38.698Z,29.77
2018-10-09T07:45:13.999Z,30.10
2018-10-09T07:47:43.712Z,31.00
2018-10-09T07:50:13.410Z,30.90
2018-10-09T07:52:43.189Z,30.82
2018-10-09T07:55:13.353Z,32.80
2018-10-09T07:57:43.104Z,33.23
2018-10-09T08:00:12.791Z,33.00
2018-10-09T08:02:42.510Z,32.55
2018-10-09T08:05:12.239Z,32.73
2018-10-09T08:07:41.955Z,32.28
2018-10-09T08:10:11.666Z,31.20
2018-10-09T08:12:41.388Z,31.90
2018-10-09T08:15:11.103Z,32.73
2018-10-09T08:17:40.811Z,32.70
2018-10-09T08:20:10.563Z,33.73
2018-10-09T08:22:40.421Z,31.80
2018-10-09T08:25:10.266Z,32.85
2018-10-09T08:27:40.292Z,32.65
2018-10-09T08:30:10.059Z,33.53
2018-10-09T08:32:39.771Z,33.83
2018-10-09T08:35:09.643Z,34.08
2018-10-09T08:37:39.348Z,34.08
2018-10-09T08:40:09.461Z,33.83
2018-10-09T08:42:39.171Z,34.58
2018-10-09T08:45:14.634Z,34.50
2018-10-09T08:47:44.331Z,33.70
2018-10-09T08:50:14.051Z,34.35
2018-10-09T08:52:43.857Z,35.70
2018-10-09T08:55:13.654Z,37.95
2018-10-09T08:57:43.409Z,36.90
2018-10-09T09:00:13.356Z,36.73
2018-10-09T09:02:43.075Z,36.80
2018-10-09T09:05:12.832Z,36.15
2018-10-09T09:07:42.635Z,34.20
2018-10-09T09:10:12.387Z,35.30
2018-10-09T09:12:42.162Z,35.68
2018-10-09T09:15:11.932Z,35.63
2018-10-09T09:17:41.818Z,37.15
2018-10-09T09:20:11.639Z,35.15
2018-10-09T09:22:41.427Z,35.35
2018-10-09T09:25:11.159Z,32.28
2018-10-09T09:27:40.945Z,34.45
2018-10-09T09:30:10.835Z,34.20
2018-10-09T09:32:40.616Z,34.45
2018-10-09T09:35:10.334Z,32.75
2018-10-09T09:37:40.146Z,34.78
2018-10-09T09:40:09.883Z,34.13
2018-10-09T09:42:39.598Z,33.15
2018-10-09T09:45:09.339Z,33.98
2018-10-09T09:47:39.366Z,33.92
2018-10-09T09:50:09.109Z,33.83
2018-10-09T09:52:38.909Z,34.27
2018-10-09T09:55:08.866Z,33.13
2018-10-09T09:57:38.606Z,32.13
2018-10-09T10:00:12.938Z,33.30
2018-10-09T10:02:42.640Z,32.50
2018-10-09T10:05:12.700Z,32.05
2018-10-09T10:07:42.395Z,31.25
2018-10-09T10:10:12.135Z,32.25
2018-10-09T10:12:41.934Z,32.20
2018-10-09T10:15:11.670Z,31.37
2018-10-09T10:17:41.363Z,31.97
2018-10-09T10:20:11.475Z,30.77
2018-10-09T10:22:41.192Z,31.25
2018-10-09T10:25:10.947Z,29.85
2018-10-09T10:27:40.659Z,29.82
2018-10-09T10:30:10.391Z,25.17
2018-10-09T10:32:40.131Z,25.35
2018-10-09T10:35:09.844Z,24.55
2018-10-09T10:37:39.571Z,23.70
2018-10-09T10:40:09.387Z,21.10
2018-10-09T10:42:39.122Z,21.27
2018-10-09T10:45:08.855Z,18.90
2018-10-09T10:47:38.575Z,19.10
2018-10-09T10:50:08.659Z,19.27
2018-10-09T10:52:38.399Z,18.12
2018-10-09T10:55:08.300Z,18.07
2018-10-09T10:57:38.223Z,17.05
2018-10-09T11:00:08.275Z,16.23
2018-10-09T11:02:38.007Z,16.17
2018-10-09T11:05:08.411Z,17.27
2018-10-09T11:07:38.146Z,16.75
2018-10-09T11:10:08.380Z,16.07
2018-10-09T11:12:38.126Z,17.70
2018-10-09T11:15:07.872Z,16.40
2018-10-09T11:17:37.605Z,18.10
2018-10-09T11:20:07.351Z,17.02
2018-10-09T11:22:37.098Z,16.82
2018-10-09T11:25:06.873Z,17.57
2018-10-09T11:27:36.895Z,18.25
2018-10-09T11:30:07.124Z,16.07
2018-10-09T11:32:36.926Z,16.00
2018-10-09T11:35:06.823Z,15.75
2018-10-09T11:37:36.543Z,14.15
2018-10-09T11:40:06.299Z,15.53
2018-10-09T11:42:36.146Z,14.53
2018-10-09T11:45:06.127Z,14.85
2018-10-09T11:47:35.888Z,15.20
2018-10-09T11:50:06.432Z,14.85
2018-10-09T11:52:37.554Z,13.53
2018-10-09T11:55:07.392Z,12.80
2018-10-09T11:57:37.114Z,11.57
2018-10-09T12:00:08.051Z,11.43
2018-10-09T12:02:37.789Z,11.22
2018-10-09T12:05:07.959Z,10.98
2018-10-09T12:07:38.080Z,11.33
2018-10-09T12:10:08.171Z,10.72
2018-10-09T12:12:37.931Z,10.75
2018-10-09T12:15:07.703Z,10.75
2018-10-09T12:17:37.679Z,12.00
2018-10-09T12:20:07.733Z,11.35
2018-10-09T12:22:37.519Z,9.83
2018-10-09T12:25:07.239Z,8.83
2018-10-09T12:27:37.340Z,8.75
2018-10-09T12:30:07.410Z,9.60
2018-10-09T12:32:37.172Z,9.40
2018-10-09T12:35:07.092Z,9.18
2018-10-09T12:37:36.816Z,10.28
2018-10-09T12:40:06.558Z,10.10
2018-10-09T12:42:36.536Z,10.32
2018-10-09T12:45:13.557Z,9.55
2018-10-09T12:47:45.016Z,9.73
2018-10-09T12:50:15.315Z,9.60
2018-10-09T12:52:45.447Z,10.68
2018-10-09T12:55:15.364Z,11.28
2018-10-09T12:57:45.037Z,10.43
2018-10-09T13:00:14.763Z,10.58
2018-10-09T13:02:44.431Z,10.20
2018-10-09T13:05:14.133Z,10.60
2018-10-09T13:07:43.811Z,11.88
2018-10-09T13:10:13.523Z,12.00
2018-10-09T13:12:43.291Z,12.65
2018-10-09T13:15:13.050Z,12.95
2018-10-09T13:17:43.048Z,12.65
2018-10-09T13:20:12.956Z,11.68
2018-10-09T13:22:42.815Z,10.82
2018-10-09T13:25:12.943Z,10.72
2018-10-09T13:27:42.687Z,11.12
2018-10-09T13:30:12.395Z,11.50
2018-10-09T13:32:42.397Z,11.57
2018-10-09T13:35:12.095Z,11.70
2018-10-09T13:37:41.811Z,12.00
2018-10-09T13:40:11.527Z,12.03
2018-10-09T13:42:41.228Z,12.18
2018-10-09T13:45:10.950Z,12.70
2018-10-09T13:47:40.790Z,13.50
2018-10-09T13:50:10.554Z,12.60
2018-10-09T13:52:40.284Z,12.88
2018-10-09T13:55:09.982Z,14.13
2018-10-09T13:57:40.435Z,12.82
2018-10-09T14:00:10.179Z,13.45
2018-10-09T14:02:39.926Z,12.78
2018-10-09T14:05:09.649Z,12.88
2018-10-09T14:07:39.355Z,13.98
2018-10-09T14:10:09.497Z,14.38
2018-10-09T14:12:39.407Z,13.65
2018-10-09T14:15:11.651Z,14.00
2018-10-09T14:17:43.251Z,14.78
2018-10-09T14:20:13.235Z,15.58
2018-10-09T14:22:42.943Z,15.75
2018-10-09T14:25:13.318Z,14.78
2018-10-09T14:27:43.106Z,15.38
2018-10-09T14:30:13.407Z,16.00
2018-10-09T14:32:43.160Z,16.02
2018-10-09T14:35:12.831Z,15.40
2018-10-09T14:37:42.518Z,15.25
2018-10-09T14:40:12.199Z,16.10
2018-10-09T14:42:41.894Z,15.55
2018-10-09T14:45:17.447Z,14.87
2018-10-09T14:47:47.156Z,15.53
2018-10-09T14:50:16.814Z,17.48
2018-10-09T14:52:46.527Z,18.35
2018-10-09T14:55:16.221Z,17.77
2018-10-09T14:57:45.895Z,16.90
2018-10-09T15:00:15.603Z,17.62
2018-10-09T15:02:45.263Z,18.23
2018-10-09T15:05:14.945Z,19.17
2018-10-09T15:07:44.634Z,19.85
2018-10-09T15:10:14.335Z,19.25
2018-10-09T15:12:44.411Z,18.92
2018-10-09T15:15:14.083Z,19.32
2018-10-09T15:17:43.744Z,19.55
2018-10-09T15:20:13.667Z,20.62
2018-10-09T15:22:43.339Z,20.32
2018-10-09T15:25:13.062Z,21.12
2018-10-09T15:27:42.828Z,21.42
2018-10-09T15:30:12.501Z,22.17
2018-10-09T15:32:42.200Z,21.75
2018-10-09T15:35:11.862Z,23.20
2018-10-09T15:37:41.548Z,22.13
2018-10-09T15:40:11.284Z,21.30
2018-10-09T15:42:41.024Z,22.55
2018-10-09T15:45:16.492Z,22.58
2018-10-09T15:47:46.166Z,23.57
2018-10-09T15:50:15.871Z,22.95
2018-10-09T15:52:45.660Z,23.00
2018-10-09T15:55:15.815Z,22.87
2018-10-09T15:57:45.504Z,23.12
2018-10-09T16:00:15.523Z,23.12
2018-10-09T16:02:45.275Z,23.65
2018-10-09T16:05:14.951Z,24.35
2018-10-09T16:07:44.672Z,23.57
2018-10-09T16:10:14.358Z,23.80
2018-10-09T16:12:44.063Z,23.73
2018-10-09T16:15:13.731Z,25.55
2018-10-09T16:17:43.420Z,24.77
2018-10-09T16:20:13.152Z,23.87
2018-10-09T16:22:42.834Z,23.75
2018-10-09T16:25:12.528Z,24.50
2018-10-09T16:27:42.179Z,26.10
2018-10-09T16:30:12.159Z,26.87
2018-10-09T16:32:41.951Z,26.73
2018-10-09T16:35:12.088Z,26.70
2018-10-09T16:37:41.839Z,25.30
2018-10-09T16:40:12.011Z,27.05
2018-10-09T16:42:41.699Z,28.07
2018-10-09T16:45:11.411Z,27.73
2018-10-09T16:47:41.104Z,27.80
2018-10-09T16:50:10.820Z,26.97
2018-10-09T16:52:40.483Z,27.80
2018-10-09T16:55:10.229Z,28.05
2018-10-09T16:57:40.032Z,27.82
2018-10-09T17:00:09.759Z,27.93
2018-10-09T17:02:39.531Z,26.65
2018-10-09T17:05:09.203Z,29.98
2018-10-09T17:07:38.928Z,26.35
2018-10-09T17:10:08.988Z,28.30
2018-10-09T17:12:38.739Z,28.20
2018-10-09T17:15:08.531Z,28.07
2018-10-09T17:17:38.391Z,28.40
2018-10-09T17:20:08.451Z,27.00
2018-10-09T17:22:38.187Z,28.30
2018-10-09T17:25:08.180Z,30.20
2018-10-09T17:27:37.915Z,28.45
2018-10-09T17:30:08.240Z,29.35
2018-10-09T17:32:38.440Z,28.83
2018-10-09T17:35:08.277Z,30.50
2018-10-09T17:37:38.794Z,30.65
2018-10-09T17:40:08.829Z,27.35
2018-10-09T17:42:38.646Z,27.62
2018-10-09T17:45:13.961Z,28.92
2018-10-09T17:47:44.222Z,28.50
2018-10-09T17:50:15.335Z,28.70
2018-10-09T17:52:45.448Z,27.65
2018-10-09T17:55:15.521Z,30.23
2018-10-09T17:57:46.574Z,28.73
2018-10-09T18:00:16.311Z,28.92
2018-10-09T18:02:46.446Z,27.32
2018-10-09T18:05:16.208Z,28.80
2018-10-09T18:07:47.322Z,28.65
2018-10-09T18:10:17.270Z,27.82
2018-10-09T18:12:47.464Z,31.37
2018-10-09T18:15:17.253Z,30.37
2018-10-09T18:17:47.295Z,27.70
2018-10-09T18:20:17.142Z,31.10
2018-10-09T18:22:47.091Z,30.12
2018-10-09T18:25:16.853Z,32.73
2018-10-09T18:27:46.562Z,29.63
2018-10-09T18:30:16.393Z,31.68
2018-10-09T18:32:46.292Z,29.20
2018-10-09T18:35:16.548Z,30.82
2018-10-09T18:37:46.460Z,29.37
2018-10-09T18:40:16.647Z,27.35
2018-10-09T18:42:46.495Z,27.27
2018-10-09T18:45:19.232Z,30.10
2018-10-09T18:47:49.168Z,31.35
2018-10-09T18:50:19.294Z,29.65
2018-10-09T18:52:49.437Z,29.50
2018-10-09T18:55:19.327Z,29.57
2018-10-09T18:57:49.472Z,27.62
2018-10-09T19:00:19.618Z,28.75
2018-10-09T19:02:49.639Z,30.57
2018-10-09T19:05:19.581Z,32.20
2018-10-09T19:07:49.428Z,31.27
2018-10-09T19:10:19.295Z,29.87
2018-10-09T19:12:49.316Z,31.20
2018-10-09T19:15:19.395Z,31.85
2018-10-09T19:17:49.470Z,26.50
2018-10-09T19:20:19.459Z,27.93
2018-10-09T19:22:49.291Z,32.38
2018-10-09T19:25:20.507Z,32.30
2018-10-09T19:27:50.280Z,30.72
2018-10-09T19:30:20.336Z,34.85
2018-10-09T19:32:50.441Z,34.88
2018-10-09T19:35:20.401Z,34.30
2018-10-09T19:37:50.203Z,34.55
2018-10-09T19:40:20.009Z,34.80
2018-10-09T19:42:50.088Z,35.08
2018-10-09T19:45:19.871Z,35.40
2018-10-09T19:47:49.743Z,35.48
2018-10-09T19:50:20.087Z,34.55
2018-10-09T19:52:50.178Z,36.42
2018-10-09T19:55:20.560Z,35.17
2018-10-09T19:57:50.651Z,36.68
2018-10-09T20:00:20.652Z,34.67
2018-10-09T20:02:50.771Z,32.93
2018-10-09T20:05:20.536Z,30.25
2018-10-09T20:07:50.864Z,33.98
2018-10-09T20:10:21.021Z,29.87
2018-10-09T20:12:50.759Z,32.58
2018-10-09T20:15:20.510Z,34.30
2018-10-09T20:17:50.233Z,35.38
2018-10-09T20:20:19.953Z,31.75
2018-10-09T20:22:49.745Z,32.35
2018-10-09T20:25:19.463Z,33.18
2018-10-09T20:27:49.267Z,30.27
2018-10-09T20:30:19.007Z,34.75
2018-10-09T20:32:48.767Z,31.35
2018-10-09T20:35:18.486Z,33.83
2018-10-09T20:37:48.520Z,32.55
2018-10-09T20:40:18.551Z,36.58
2018-10-09T20:42:48.647Z,32.28
2018-10-09T20:45:18.383Z,30.75
2018-10-09T20:47:48.445Z,35.92
2018-10-09T20:50:18.491Z,35.65
2018-10-09T20:52:48.199Z,39.13
2018-10-09T20:55:17.916Z,37.75
2018-10-09T20:57:47.619Z,37.95
2018-10-09T21:00:17.366Z,35.50
2018-10-09T21:02:47.074Z,39.40
2018-10-09T21:05:16.794Z,37.70
2018-10-09T21:07:46.666Z,38.78
2018-10-09T21:10:16.367Z,34.35
2018-10-09T21:12:46.069Z,36.65
2018-10-09T21:15:15.780Z,37.38
2018-10-09T21:17:45.601Z,38.90
2018-10-09T21:20:15.419Z,39.65
2018-10-09T21:22:45.123Z,36.13
2018-10-09T21:25:14.857Z,38.65
2018-10-09T21:27:44.787Z,42.05
2018-10-09T21:30:14.856Z,41.50
2018-10-09T21:32:44.561Z,43.10
2018-10-09T21:35:14.333Z,39.67
2018-10-09T21:37:44.101Z,39.98
2018-10-09T21:40:13.986Z,40.90
2018-10-09T21:42:43.659Z,40.92
2018-10-09T21:45:13.367Z,40.15
2018-10-09T21:47:48.547Z,38.35
2018-10-09T21:50:18.256Z,38.55
2018-10-09T21:52:47.959Z,37.30
2018-10-09T21:55:17.667Z,38.23
2018-10-09T21:57:47.420Z,39.67
2018-10-09T22:00:17.194Z,40.63
2018-10-09T22:02:46.871Z,41.00
2018-10-09T22:05:16.610Z,40.15
2018-10-09T22:07:46.355Z,41.25
2018-10-09T22:10:16.079Z,39.83
2018-10-09T22:12:45.772Z,42.55
2018-10-09T22:15:15.522Z,42.15
2018-10-09T22:17:45.243Z,40.70
2018-10-09T22:20:15.028Z,41.80
2018-10-09T22:22:45.119Z,41.77
2018-10-09T22:25:14.853Z,42.03
2018-10-09T22:27:44.611Z,42.78
2018-10-09T22:30:14.334Z,43.17
2018-10-09T22:32:43.995Z,44.85
2018-10-09T22:35:13.740Z,44.48
2018-10-09T22:37:43.449Z,43.17
2018-10-09T22:40:13.178Z,43.80
2018-10-09T22:42:42.882Z,44.25
2018-10-09T22:45:12.648Z,40.85
2018-10-09T22:47:42.491Z,42.83
2018-10-09T22:50:12.397Z,43.83
2018-10-09T22:52:42.102Z,43.33
2018-10-09T22:55:11.852Z,42.03
2018-10-09T22:57:41.940Z,43.30
2018-10-09T23:00:11.726Z,43.50
2018-10-09T23:02:41.435Z,41.20
2018-10-09T23:05:11.212Z,39.60
2018-10-09T23:07:41.428Z,42.58
2018-10-09T23:10:11.247Z,42.03
2018-10-09T23:12:40.954Z,40.55
2018-10-09T23:15:10.699Z,40.12
2018-10-09T23:17:40.416Z,41.35
2018-10-09T23:20:10.140Z,41.77
2018-10-09T23:22:39.936Z,43.65
2018-10-09T23:25:09.932Z,38.13
2018-10-09T23:27:39.692Z,40.03
2018-10-09T23:30:09.847Z,41.55
2018-10-09T23:32:39.576Z,41.28
2018-10-09T23:35:09.295Z,39.73
2018-10-09T23:37:39.016Z,39.23
2018-10-09T23:40:09.047Z,41.53
2018-10-09T23:42:42.194Z,40.58
2018-10-09T23:45:12.045Z,40.70
2018-10-09T23:47:41.755Z,39.25
2018-10-09T23:50:11.533Z,39.75
2018-10-09T23:52:41.248Z,39.30
2018-10-09T23:55:10.971Z,37.58
2018-10-09T23:57:40.698Z,38.28
